sensor_id;sensor_type;location;lat;lon;timestamp;P1;durP1;ratioP1;P2;durP2;ratioP2
27580;SDS011;63557;52.302;7.964;2022-11-02T00:04:34;12.43;;;2.93;;
27580;SDS011;63557;52.302;7.964;2022-11-02T00:09:35;12.57;;;2.97;;
27580;SDS011;63557;52.302;7.964;2022-11-02T00:14:35;14.32;;;3.25;;
27580;SDS011;63557;52.302;7.964;2022-11-02T00:19:35;16.35;;;3.22;;
27580;SDS011;63557;52.302;7.964;2022-11-02T00:24:36;16.40;;;3.70;;
27580;SDS011;63557;52.302;7.964;2022-11-02T00:29:36;10.27;;;2.87;;
27580;SDS011;63557;52.302;7.964;2022-11-02T00:34:36;18.33;;;2.60;;
27580;SDS011;63557;52.302;7.964;2022-11-02T00:39:37;23.15;;;3.20;;
27580;SDS011;63557;52.302;7.964;2022-11-02T00:44:37;17.20;;;2.92;;
27580;SDS011;63557;52.302;7.964;2022-11-02T00:49:38;20.97;;;3.73;;
27580;SDS011;63557;52.302;7.964;2022-11-02T00:54:39;15.05;;;3.13;;
27580;SDS011;63557;52.302;7.964;2022-11-02T00:59:40;18.17;;;3.13;;
27580;SDS011;63557;52.302;7.964;2022-11-02T01:04:41;17.23;;;4.05;;
27580;SDS011;63557;52.302;7.964;2022-11-02T01:09:41;11.05;;;2.40;;
27580;SDS011;63557;52.302;7.964;2022-11-02T01:14:42;12.80;;;2.78;;
27580;SDS011;63557;52.302;7.964;2022-11-02T01:19:42;12.73;;;2.80;;
27580;SDS011;63557;52.302;7.964;2022-11-02T01:24:43;9.77;;;2.20;;
27580;SDS011;63557;52.302;7.964;2022-11-02T01:29:43;20.33;;;2.83;;
27580;SDS011;63557;52.302;7.964;2022-11-02T01:34:43;16.80;;;3.17;;
27580;SDS011;63557;52.302;7.964;2022-11-02T01:39:44;16.07;;;3.60;;
27580;SDS011;63557;52.302;7.964;2022-11-02T01:44:44;12.63;;;2.93;;
27580;SDS011;63557;52.302;7.964;2022-11-02T01:49:45;14.35;;;3.72;;
27580;SDS011;63557;52.302;7.964;2022-11-02T01:54:51;13.43;;;2.90;;
27580;SDS011;63557;52.302;7.964;2022-11-02T01:59:57;13.23;;;3.10;;
27580;SDS011;63557;52.302;7.964;2022-11-02T02:05:04;18.83;;;3.30;;
27580;SDS011;63557;52.302;7.964;2022-11-02T02:10:05;14.93;;;3.25;;
27580;SDS011;63557;52.302;7.964;2022-11-02T02:15:07;15.30;;;3.20;;
27580;SDS011;63557;52.302;7.964;2022-11-02T02:20:10;14.20;;;2.85;;
27580;SDS011;63557;52.302;7.964;2022-11-02T02:30:19;15.57;;;3.67;;
27580;SDS011;63557;52.302;7.964;2022-11-02T02:35:24;17.13;;;2.80;;
27580;SDS011;63557;52.302;7.964;2022-11-02T02:40:38;16.50;;;3.10;;
27580;SDS011;63557;52.302;7.964;2022-11-02T02:45:44;14.00;;;2.78;;
27580;SDS011;63557;52.302;7.964;2022-11-02T02:50:50;20.65;;;3.72;;
27580;SDS011;63557;52.302;7.964;2022-11-02T03:00:52;13.50;;;3.05;;
27580;SDS011;63557;52.302;7.964;2022-11-02T03:06:09;16.45;;;2.88;;
27580;SDS011;63557;52.302;7.964;2022-11-02T03:11:14;9.85;;;2.67;;
27580;SDS011;63557;52.302;7.964;2022-11-02T03:21:37;19.13;;;3.80;;
27580;SDS011;63557;52.302;7.964;2022-11-02T03:26:47;19.03;;;2.80;;
27580;SDS011;63557;52.302;7.964;2022-11-02T03:31:58;18.05;;;3.88;;
27580;SDS011;63557;52.302;7.964;2022-11-02T03:42:11;9.63;;;2.80;;
27580;SDS011;63557;52.302;7.964;2022-11-02T03:47:13;17.52;;;3.20;;
27580;SDS011;63557;52.302;7.964;2022-11-02T03:52:17;10.60;;;3.05;;
27580;SDS011;63557;52.302;7.964;2022-11-02T03:57:22;15.90;;;3.25;;
27580;SDS011;63557;52.302;7.964;2022-11-02T04:02:24;13.63;;;3.05;;
27580;SDS011;63557;52.302;7.964;2022-11-02T04:07:26;16.50;;;2.88;;
27580;SDS011;63557;52.302;7.964;2022-11-02T04:12:29;12.02;;;3.60;;
27580;SDS011;63557;52.302;7.964;2022-11-02T04:17:48;18.20;;;3.22;;
27580;SDS011;63557;52.302;7.964;2022-11-02T04:23:08;9.77;;;2.40;;
27580;SDS011;63557;52.302;7.964;2022-11-02T04:28:28;13.65;;;2.70;;
27580;SDS011;63557;52.302;7.964;2022-11-02T04:33:32;12.63;;;3.13;;
27580;SDS011;63557;52.302;7.964;2022-11-02T04:38:53;10.60;;;2.80;;
27580;SDS011;63557;52.302;7.964;2022-11-02T04:44:04;12.40;;;3.10;;
27580;SDS011;63557;52.302;7.964;2022-11-02T04:49:05;10.23;;;2.60;;
27580;SDS011;63557;52.302;7.964;2022-11-02T04:54:07;13.65;;;3.80;;
27580;SDS011;63557;52.302;7.964;2022-11-02T04:59:08;14.45;;;2.67;;
27580;SDS011;63557;52.302;7.964;2022-11-02T05:04:11;13.30;;;3.20;;
27580;SDS011;63557;52.302;7.964;2022-11-02T05:09:12;8.57;;;2.63;;
27580;SDS011;63557;52.302;7.964;2022-11-02T05:14:16;11.95;;;2.60;;
27580;SDS011;63557;52.302;7.964;2022-11-02T05:19:18;17.83;;;3.00;;
27580;SDS011;63557;52.302;7.964;2022-11-02T05:24:18;12.45;;;3.45;;
27580;SDS011;63557;52.302;7.964;2022-11-02T05:29:19;16.23;;;3.15;;
27580;SDS011;63557;52.302;7.964;2022-11-02T05:34:20;15.88;;;3.50;;
27580;SDS011;63557;52.302;7.964;2022-11-02T05:39:22;17.35;;;3.42;;
27580;SDS011;63557;52.302;7.964;2022-11-02T05:44:23;12.52;;;3.35;;
27580;SDS011;63557;52.302;7.964;2022-11-02T05:49:23;14.80;;;2.67;;
27580;SDS011;63557;52.302;7.964;2022-11-02T05:54:24;13.73;;;3.40;;
27580;SDS011;63557;52.302;7.964;2022-11-02T05:59:24;10.87;;;2.93;;
27580;SDS011;63557;52.302;7.964;2022-11-02T06:04:25;17.48;;;3.15;;
27580;SDS011;63557;52.302;7.964;2022-11-02T06:09:25;15.73;;;2.70;;
27580;SDS011;63557;52.302;7.964;2022-11-02T06:14:25;16.25;;;2.95;;
27580;SDS011;63557;52.302;7.964;2022-11-02T06:19:26;12.67;;;3.13;;
27580;SDS011;63557;52.302;7.964;2022-11-02T06:24:26;16.60;;;3.17;;
27580;SDS011;63557;52.302;7.964;2022-11-02T06:29:26;16.07;;;3.10;;
27580;SDS011;63557;52.302;7.964;2022-11-02T06:34:27;17.25;;;3.00;;
27580;SDS011;63557;52.302;7.964;2022-11-02T06:39:27;17.53;;;3.13;;
27580;SDS011;63557;52.302;7.964;2022-11-02T06:44:28;12.33;;;2.90;;
27580;SDS011;63557;52.302;7.964;2022-11-02T06:49:28;13.50;;;3.07;;
27580;SDS011;63557;52.302;7.964;2022-11-02T06:54:28;13.13;;;3.27;;
27580;SDS011;63557;52.302;7.964;2022-11-02T06:59:29;14.07;;;3.13;;
27580;SDS011;63557;52.302;7.964;2022-11-02T07:04:29;10.80;;;3.00;;
27580;SDS011;63557;52.302;7.964;2022-11-02T07:09:29;11.10;;;2.63;;
27580;SDS011;63557;52.302;7.964;2022-11-02T07:14:30;11.57;;;2.20;;
27580;SDS011;63557;52.302;7.964;2022-11-02T07:19:30;14.10;;;2.57;;
27580;SDS011;63557;52.302;7.964;2022-11-02T07:24:30;10.52;;;2.13;;
27580;SDS011;63557;52.302;7.964;2022-11-02T07:29:31;12.93;;;2.70;;
27580;SDS011;63557;52.302;7.964;2022-11-02T07:34:31;17.47;;;2.90;;
27580;SDS011;63557;52.302;7.964;2022-11-02T07:39:31;12.27;;;3.40;;
27580;SDS011;63557;52.302;7.964;2022-11-02T07:44:32;15.60;;;3.60;;
27580;SDS011;63557;52.302;7.964;2022-11-02T07:49:32;13.37;;;3.07;;
27580;SDS011;63557;52.302;7.964;2022-11-02T07:54:32;14.23;;;3.17;;
27580;SDS011;63557;52.302;7.964;2022-11-02T07:59:33;16.57;;;2.50;;
27580;SDS011;63557;52.302;7.964;2022-11-02T08:04:33;12.15;;;3.10;;
27580;SDS011;63557;52.302;7.964;2022-11-02T08:09:34;18.63;;;3.90;;
27580;SDS011;63557;52.302;7.964;2022-11-02T08:14:34;18.23;;;2.73;;
27580;SDS011;63557;52.302;7.964;2022-11-02T08:19:34;19.17;;;2.30;;
27580;SDS011;63557;52.302;7.964;2022-11-02T08:24:35;11.97;;;3.20;;
27580;SDS011;63557;52.302;7.964;2022-11-02T08:29:35;17.53;;;3.20;;
27580;SDS011;63557;52.302;7.964;2022-11-02T08:34:36;13.35;;;2.83;;
27580;SDS011;63557;52.302;7.964;2022-11-02T08:39:36;12.07;;;3.27;;
27580;SDS011;63557;52.302;7.964;2022-11-02T08:44:36;10.27;;;3.85;;
27580;SDS011;63557;52.302;7.964;2022-11-02T08:49:37;15.00;;;3.10;;
27580;SDS011;63557;52.302;7.964;2022-11-02T08:54:37;15.27;;;3.10;;
27580;SDS011;63557;52.302;7.964;2022-11-02T08:59:37;18.73;;;2.70;;
27580;SDS011;63557;52.302;7.964;2022-11-02T09:04:38;16.98;;;3.15;;
27580;SDS011;63557;52.302;7.964;2022-11-02T09:09:38;11.65;;;2.53;;
27580;SDS011;63557;52.302;7.964;2022-11-02T09:14:39;14.40;;;2.78;;
27580;SDS011;63557;52.302;7.964;2022-11-02T09:19:39;15.43;;;3.50;;
27580;SDS011;63557;52.302;7.964;2022-11-02T09:24:39;15.67;;;3.50;;
27580;SDS011;63557;52.302;7.964;2022-11-02T09:29:40;11.90;;;2.93;;
27580;SDS011;63557;52.302;7.964;2022-11-02T09:34:40;17.33;;;2.73;;
27580;SDS011;63557;52.302;7.964;2022-11-02T09:39:40;14.40;;;2.50;;
27580;SDS011;63557;52.302;7.964;2022-11-02T09:44:46;18.73;;;3.20;;
27580;SDS011;63557;52.302;7.964;2022-11-02T09:49:48;15.60;;;2.70;;
27580;SDS011;63557;52.302;7.964;2022-11-02T09:54:49;8.10;;;2.45;;
27580;SDS011;63557;52.302;7.964;2022-11-02T09:59:51;10.07;;;2.42;;
27580;SDS011;63557;52.302;7.964;2022-11-02T10:15:14;11.18;;;2.67;;
27580;SDS011;63557;52.302;7.964;2022-11-02T10:20:19;13.32;;;2.88;;
27580;SDS011;63557;52.302;7.964;2022-11-02T10:25:21;14.02;;;2.38;;
27580;SDS011;63557;52.302;7.964;2022-11-02T10:30:22;10.93;;;2.45;;
27580;SDS011;63557;52.302;7.964;2022-11-02T10:55:56;8.25;;;2.10;;
27580;SDS011;63557;52.302;7.964;2022-11-02T11:01:05;9.30;;;2.03;;
27580;SDS011;63557;52.302;7.964;2022-11-02T11:06:07;9.02;;;2.15;;
27580;SDS011;63557;52.302;7.964;2022-11-02T11:11:17;9.75;;;2.25;;
27580;SDS011;63557;52.302;7.964;2022-11-02T11:16:18;8.90;;;2.70;;
27580;SDS011;63557;52.302;7.964;2022-11-02T11:21:19;7.15;;;1.88;;
27580;SDS011;63557;52.302;7.964;2022-11-02T11:26:25;11.27;;;2.57;;
27580;SDS011;63557;52.302;7.964;2022-11-02T11:31:26;8.75;;;2.42;;
27580;SDS011;63557;52.302;7.964;2022-11-02T11:36:27;12.83;;;2.60;;
27580;SDS011;63557;52.302;7.964;2022-11-02T11:41:29;16.48;;;2.55;;
27580;SDS011;63557;52.302;7.964;2022-11-02T11:46:43;7.40;;;2.05;;
27580;SDS011;63557;52.302;7.964;2022-11-02T11:51:46;11.27;;;2.55;;
27580;SDS011;63557;52.302;7.964;2022-11-02T11:56:48;9.70;;;2.40;;
27580;SDS011;63557;52.302;7.964;2022-11-02T12:01:49;15.18;;;2.40;;
27580;SDS011;63557;52.302;7.964;2022-11-02T12:12:51;8.65;;;2.42;;
27580;SDS011;63557;52.302;7.964;2022-11-02T12:33:14;6.97;;;2.08;;
27580;SDS011;63557;52.302;7.964;2022-11-02T12:53:38;15.13;;;2.20;;
27580;SDS011;63557;52.302;7.964;2022-11-02T12:58:39;10.63;;;2.72;;
27580;SDS011;63557;52.302;7.964;2022-11-02T13:08:45;6.30;;;2.10;;
27580;SDS011;63557;52.302;7.964;2022-11-02T13:13:53;7.70;;;2.00;;
27580;SDS011;63557;52.302;7.964;2022-11-02T13:18:54;12.82;;;2.80;;
27580;SDS011;63557;52.302;7.964;2022-11-02T13:23:57;7.18;;;1.92;;
27580;SDS011;63557;52.302;7.964;2022-11-02T13:33:59;12.80;;;2.47;;
27580;SDS011;63557;52.302;7.964;2022-11-02T13:39:23;10.32;;;2.00;;
27580;SDS011;63557;52.302;7.964;2022-11-02T13:49:44;11.60;;;2.10;;
27580;SDS011;63557;52.302;7.964;2022-11-02T13:54:49;12.70;;;3.22;;
27580;SDS011;63557;52.302;7.964;2022-11-02T13:59:50;11.32;;;2.17;;
27580;SDS011;63557;52.302;7.964;2022-11-02T14:04:51;8.30;;;2.27;;
27580;SDS011;63557;52.302;7.964;2022-11-02T14:09:55;7.50;;;2.17;;
27580;SDS011;63557;52.302;7.964;2022-11-02T14:20:30;12.23;;;3.15;;
27580;SDS011;63557;52.302;7.964;2022-11-02T14:25:34;7.40;;;2.08;;
27580;SDS011;63557;52.302;7.964;2022-11-02T14:30:48;9.48;;;2.20;;
27580;SDS011;63557;52.302;7.964;2022-11-02T14:35:57;14.80;;;2.75;;
27580;SDS011;63557;52.302;7.964;2022-11-02T14:41:03;9.80;;;2.30;;
27580;SDS011;63557;52.302;7.964;2022-11-02T14:51:26;12.15;;;3.05;;
27580;SDS011;63557;52.302;7.964;2022-11-02T15:07:14;7.70;;;2.08;;
27580;SDS011;63557;52.302;7.964;2022-11-02T15:22:43;17.42;;;2.63;;
27580;SDS011;63557;52.302;7.964;2022-11-02T15:27:44;8.98;;;2.30;;
27580;SDS011;63557;52.302;7.964;2022-11-02T15:32:55;12.43;;;2.60;;
27580;SDS011;63557;52.302;7.964;2022-11-02T15:37:58;12.60;;;2.88;;
27580;SDS011;63557;52.302;7.964;2022-11-02T15:48:43;9.73;;;2.60;;
27580;SDS011;63557;52.302;7.964;2022-11-02T15:53:42;11.88;;;3.00;;
27580;SDS011;63557;52.302;7.964;2022-11-02T16:04:24;13.73;;;2.83;;
27580;SDS011;63557;52.302;7.964;2022-11-02T16:14:30;11.07;;;3.33;;
27580;SDS011;63557;52.302;7.964;2022-11-02T16:19:31;17.92;;;3.15;;
27580;SDS011;63557;52.302;7.964;2022-11-02T16:24:31;11.27;;;2.47;;
27580;SDS011;63557;52.302;7.964;2022-11-02T16:29:32;13.50;;;2.80;;
27580;SDS011;63557;52.302;7.964;2022-11-02T16:34:32;11.63;;;2.90;;
27580;SDS011;63557;52.302;7.964;2022-11-02T16:39:34;21.25;;;4.72;;
27580;SDS011;63557;52.302;7.964;2022-11-02T16:44:36;14.90;;;3.70;;
27580;SDS011;63557;52.302;7.964;2022-11-02T16:54:49;24.05;;;6.28;;
27580;SDS011;63557;52.302;7.964;2022-11-02T16:59:51;20.97;;;5.87;;
27580;SDS011;63557;52.302;7.964;2022-11-02T17:04:52;17.92;;;7.38;;
27580;SDS011;63557;52.302;7.964;2022-11-02T17:09:55;18.70;;;7.18;;
27580;SDS011;63557;52.302;7.964;2022-11-02T17:14:56;17.98;;;5.70;;
27580;SDS011;63557;52.302;7.964;2022-11-02T17:25:02;21.40;;;6.75;;
27580;SDS011;63557;52.302;7.964;2022-11-02T17:30:03;23.73;;;6.82;;
27580;SDS011;63557;52.302;7.964;2022-11-02T17:35:04;23.58;;;6.70;;
27580;SDS011;63557;52.302;7.964;2022-11-02T17:40:08;21.65;;;8.23;;
27580;SDS011;63557;52.302;7.964;2022-11-02T17:45:51;19.23;;;8.30;;
27580;SDS011;63557;52.302;7.964;2022-11-02T17:50:33;21.45;;;8.27;;
27580;SDS011;63557;52.302;7.964;2022-11-02T17:55:34;20.95;;;8.68;;
27580;SDS011;63557;52.302;7.964;2022-11-02T18:00:36;22.25;;;7.05;;
27580;SDS011;63557;52.302;7.964;2022-11-02T18:05:36;17.70;;;5.38;;
27580;SDS011;63557;52.302;7.964;2022-11-02T18:10:38;14.32;;;5.18;;
27580;SDS011;63557;52.302;7.964;2022-11-02T18:15:39;28.13;;;15.90;;
27580;SDS011;63557;52.302;7.964;2022-11-02T18:20:39;17.08;;;9.35;;
27580;SDS011;63557;52.302;7.964;2022-11-02T18:25:40;18.23;;;6.82;;
27580;SDS011;63557;52.302;7.964;2022-11-02T18:30:40;12.27;;;5.60;;
27580;SDS011;63557;52.302;7.964;2022-11-02T18:35:41;17.42;;;5.07;;
27580;SDS011;63557;52.302;7.964;2022-11-02T18:40:41;10.53;;;4.27;;
27580;SDS011;63557;52.302;7.964;2022-11-02T18:45:42;19.13;;;5.18;;
27580;SDS011;63557;52.302;7.964;2022-11-02T18:50:42;11.90;;;4.67;;
27580;SDS011;63557;52.302;7.964;2022-11-02T18:55:42;18.10;;;5.33;;
27580;SDS011;63557;52.302;7.964;2022-11-02T19:00:43;20.07;;;6.63;;
27580;SDS011;63557;52.302;7.964;2022-11-02T19:05:43;20.25;;;5.88;;
27580;SDS011;63557;52.302;7.964;2022-11-02T19:11:02;19.00;;;7.10;;
27580;SDS011;63557;52.302;7.964;2022-11-02T19:16:03;25.90;;;13.47;;
27580;SDS011;63557;52.302;7.964;2022-11-02T19:21:03;33.10;;;19.90;;
27580;SDS011;63557;52.302;7.964;2022-11-02T19:26:04;23.83;;;10.52;;
27580;SDS011;63557;52.302;7.964;2022-11-02T19:31:05;21.45;;;11.63;;
27580;SDS011;63557;52.302;7.964;2022-11-02T19:36:05;22.42;;;12.05;;
27580;SDS011;63557;52.302;7.964;2022-11-02T19:46:11;16.77;;;6.85;;
27580;SDS011;63557;52.302;7.964;2022-11-02T19:56:13;21.03;;;4.63;;
27580;SDS011;63557;52.302;7.964;2022-11-02T20:01:17;18.38;;;5.70;;
27580;SDS011;63557;52.302;7.964;2022-11-02T20:06:20;14.77;;;3.83;;
27580;SDS011;63557;52.302;7.964;2022-11-02T20:11:20;11.07;;;3.85;;
27580;SDS011;63557;52.302;7.964;2022-11-02T20:16:21;17.50;;;4.78;;
27580;SDS011;63557;52.302;7.964;2022-11-02T20:21:23;20.77;;;4.57;;
27580;SDS011;63557;52.302;7.964;2022-11-02T20:26:24;15.05;;;3.45;;
27580;SDS011;63557;52.302;7.964;2022-11-02T20:31:27;13.15;;;4.00;;
27580;SDS011;63557;52.302;7.964;2022-11-02T20:36:27;16.98;;;3.85;;
27580;SDS011;63557;52.302;7.964;2022-11-02T20:41:28;14.20;;;3.33;;
27580;SDS011;63557;52.302;7.964;2022-11-02T20:46:29;13.05;;;3.42;;
27580;SDS011;63557;52.302;7.964;2022-11-02T20:51:29;13.88;;;3.17;;
27580;SDS011;63557;52.302;7.964;2022-11-02T20:56:30;15.45;;;3.25;;
27580;SDS011;63557;52.302;7.964;2022-11-02T21:01:30;19.77;;;3.60;;
27580;SDS011;63557;52.302;7.964;2022-11-02T21:06:31;13.45;;;3.28;;
27580;SDS011;63557;52.302;7.964;2022-11-02T21:11:31;16.02;;;3.83;;
27580;SDS011;63557;52.302;7.964;2022-11-02T21:16:50;15.55;;;3.58;;
27580;SDS011;63557;52.302;7.964;2022-11-02T21:21:50;14.93;;;3.80;;
27580;SDS011;63557;52.302;7.964;2022-11-02T21:26:50;11.77;;;2.90;;
27580;SDS011;63557;52.302;7.964;2022-11-02T21:31:51;15.43;;;4.40;;
27580;SDS011;63557;52.302;7.964;2022-11-02T21:36:51;14.80;;;3.33;;
27580;SDS011;63557;52.302;7.964;2022-11-02T21:41:51;12.57;;;3.03;;
27580;SDS011;63557;52.302;7.964;2022-11-02T21:46:52;11.40;;;3.83;;
27580;SDS011;63557;52.302;7.964;2022-11-02T21:51:52;14.80;;;3.70;;
27580;SDS011;63557;52.302;7.964;2022-11-02T21:56:53;22.63;;;3.70;;
27580;SDS011;63557;52.302;7.964;2022-11-02T22:01:53;12.60;;;3.27;;
27580;SDS011;63557;52.302;7.964;2022-11-02T22:06:54;8.25;;;3.13;;
27580;SDS011;63557;52.302;7.964;2022-11-02T22:11:55;12.63;;;3.22;;
27580;SDS011;63557;52.302;7.964;2022-11-02T22:17:14;15.80;;;3.85;;
27580;SDS011;63557;52.302;7.964;2022-11-02T22:22:14;13.17;;;3.40;;
27580;SDS011;63557;52.302;7.964;2022-11-02T22:27:15;19.63;;;4.13;;
27580;SDS011;63557;52.302;7.964;2022-11-02T22:32:15;17.07;;;3.37;;
27580;SDS011;63557;52.302;7.964;2022-11-02T22:37:15;15.35;;;3.30;;
27580;SDS011;63557;52.302;7.964;2022-11-02T22:42:34;13.88;;;3.20;;
27580;SDS011;63557;52.302;7.964;2022-11-02T22:47:35;15.30;;;3.30;;
27580;SDS011;63557;52.302;7.964;2022-11-02T22:52:35;13.02;;;3.63;;
27580;SDS011;63557;52.302;7.964;2022-11-02T22:57:36;12.30;;;3.50;;
27580;SDS011;63557;52.302;7.964;2022-11-02T23:02:36;19.57;;;3.57;;
27580;SDS011;63557;52.302;7.964;2022-11-02T23:07:36;10.17;;;3.47;;
27580;SDS011;63557;52.302;7.964;2022-11-02T23:12:37;12.90;;;3.50;;
27580;SDS011;63557;52.302;7.964;2022-11-02T23:17:37;19.00;;;4.57;;
27580;SDS011;63557;52.302;7.964;2022-11-02T23:22:37;21.93;;;7.07;;
27580;SDS011;63557;52.302;7.964;2022-11-02T23:27:39;18.87;;;5.17;;
27580;SDS011;63557;52.302;7.964;2022-11-02T23:32:57;20.17;;;6.68;;
27580;SDS011;63557;52.302;7.964;2022-11-02T23:38:01;15.90;;;5.80;;
27580;SDS011;63557;52.302;7.964;2022-11-02T23:43:05;18.85;;;5.05;;
27580;SDS011;63557;52.302;7.964;2022-11-02T23:48:07;17.75;;;4.15;;
27580;SDS011;63557;52.302;7.964;2022-11-02T23:53:09;20.58;;;4.13;;
27580;SDS011;63557;52.302;7.964;2022-11-02T23:58:28;19.92;;;3.75;;
